sensor_id;sensor_type;location;lat;lon;timestamp;pressure;altitude;pressure_sealevel;temperature;humidity
49835;BME280;35729;52.090;13.162;2024-03-08T00:00:14;101825.19;;;-0.34;74.44
49835;BME280;35729;52.090;13.162;2024-03-08T00:02:46;101826.78;;;-0.37;74.48
49835;BME280;35729;52.090;13.162;2024-03-08T00:05:16;101824.06;;;-0.40;74.67
49835;BME280;35729;52.090;13.162;2024-03-08T00:07:44;101830.06;;;-0.41;74.57
49835;BME280;35729;52.090;13.162;2024-03-08T00:10:13;101826.47;;;-0.45;74.70
49835;BME280;35729;52.090;13.162;2024-03-08T00:12:43;101825.50;;;-0.47;75.04
49835;BME280;35729;52.090;13.162;2024-03-08T00:15:13;101819.34;;;-0.51;74.92
49835;BME280;35729;52.090;13.162;2024-03-08T00:17:42;101823.56;;;-0.53;75.05
49835;BME280;35729;52.090;13.162;2024-03-08T00:20:13;101825.19;;;-0.55;75.12
49835;BME280;35729;52.090;13.162;2024-03-08T00:22:43;101820.75;;;-0.59;75.39
49835;BME280;35729;52.090;13.162;2024-03-08T00:25:11;101819.78;;;-0.61;75.27
49835;BME280;35729;52.090;13.162;2024-03-08T00:27:40;101821.44;;;-0.63;75.53
49835;BME280;35729;52.090;13.162;2024-03-08T00:30:10;101815.13;;;-0.70;75.77
49835;BME280;35729;52.090;13.162;2024-03-08T00:32:38;101809.81;;;-0.74;75.91
49835;BME280;35729;52.090;13.162;2024-03-08T00:35:07;101821.03;;;-0.72;75.84
49835;BME280;35729;52.090;13.162;2024-03-08T00:37:40;101820.97;;;-0.74;76.04
49835;BME280;35729;52.090;13.162;2024-03-08T00:40:09;101816.56;;;-0.76;76.31
49835;BME280;35729;52.090;13.162;2024-03-08T00:42:37;101814.81;;;-0.77;76.39
49835;BME280;35729;52.090;13.162;2024-03-08T00:45:07;101801.66;;;-0.84;76.28
49835;BME280;35729;52.090;13.162;2024-03-08T00:47:42;101813.88;;;-0.79;76.56
49835;BME280;35729;52.090;13.162;2024-03-08T00:50:11;101808.41;;;-0.87;76.52
49835;BME280;35729;52.090;13.162;2024-03-08T00:52:41;101815.44;;;-0.83;76.71
49835;BME280;35729;52.090;13.162;2024-03-08T00:55:10;101813.63;;;-0.86;76.84
49835;BME280;35729;52.090;13.162;2024-03-08T00:57:38;101815.28;;;-0.86;76.94
49835;BME280;35729;52.090;13.162;2024-03-08T01:00:08;101811.78;;;-0.88;77.21
49835;BME280;35729;52.090;13.162;2024-03-08T01:02:37;101810.91;;;-0.89;77.22
49835;BME280;35729;52.090;13.162;2024-03-08T01:05:06;101803.09;;;-0.90;77.51
49835;BME280;35729;52.090;13.162;2024-03-08T01:07:35;101799.66;;;-0.91;77.63
49835;BME280;35729;52.090;13.162;2024-03-08T01:10:07;101805.63;;;-0.92;77.63
49835;BME280;35729;52.090;13.162;2024-03-08T01:12:37;101793.56;;;-0.93;77.79
49835;BME280;35729;52.090;13.162;2024-03-08T01:15:06;101790.91;;;-0.94;77.88
49835;BME280;35729;52.090;13.162;2024-03-08T01:17:34;101790.91;;;-0.94;77.92
49835;BME280;35729;52.090;13.162;2024-03-08T01:20:03;101794.31;;;-0.95;78.06
49835;BME280;35729;52.090;13.162;2024-03-08T01:22:32;101783.03;;;-0.98;78.20
49835;BME280;35729;52.090;13.162;2024-03-08T01:25:00;101783.88;;;-0.99;78.51
49835;BME280;35729;52.090;13.162;2024-03-08T01:27:32;101780.34;;;-1.01;78.31
49835;BME280;35729;52.090;13.162;2024-03-08T01:30:09;101777.72;;;-1.02;78.66
49835;BME280;35729;52.090;13.162;2024-03-08T01:32:38;101770.66;;;-1.06;78.49
49835;BME280;35729;52.090;13.162;2024-03-08T01:35:07;101776.72;;;-1.06;78.71
49835;BME280;35729;52.090;13.162;2024-03-08T01:37:36;101768.84;;;-1.09;78.57
49835;BME280;35729;52.090;13.162;2024-03-08T01:40:06;101770.47;;;-1.11;78.65
49835;BME280;35729;52.090;13.162;2024-03-08T01:42:37;101756.53;;;-1.16;78.71
49835;BME280;35729;52.090;13.162;2024-03-08T01:45:06;101759.03;;;-1.18;79.08
49835;BME280;35729;52.090;13.162;2024-03-08T01:47:35;101762.34;;;-1.20;79.05
49835;BME280;35729;52.090;13.162;2024-03-08T01:50:04;101749.34;;;-1.23;79.15
49835;BME280;35729;52.090;13.162;2024-03-08T01:52:34;101744.00;;;-1.28;79.36
49835;BME280;35729;52.090;13.162;2024-03-08T01:55:04;101742.09;;;-1.32;79.16
49835;BME280;35729;52.090;13.162;2024-03-08T01:57:33;101741.84;;;-1.38;79.35
49835;BME280;35729;52.090;13.162;2024-03-08T02:00:07;101748.50;;;-1.43;79.72
49835;BME280;35729;52.090;13.162;2024-03-08T02:02:36;101747.34;;;-1.50;79.55
49835;BME280;35729;52.090;13.162;2024-03-08T02:05:06;101744.69;;;-1.52;79.71
49835;BME280;35729;52.090;13.162;2024-03-08T02:07:34;101739.28;;;-1.58;79.75
49835;BME280;35729;52.090;13.162;2024-03-08T02:10:03;101737.38;;;-1.62;79.76
49835;BME280;35729;52.090;13.162;2024-03-08T02:12:31;101734.63;;;-1.67;80.24
49835;BME280;35729;52.090;13.162;2024-03-08T02:15:00;101734.41;;;-1.71;80.04
49835;BME280;35729;52.090;13.162;2024-03-08T02:17:31;101735.09;;;-1.75;80.31
49835;BME280;35729;52.090;13.162;2024-03-08T02:20:00;101733.16;;;-1.80;80.74
49835;BME280;35729;52.090;13.162;2024-03-08T02:22:32;101736.44;;;-1.84;80.70
49835;BME280;35729;52.090;13.162;2024-03-08T02:25:02;101724.25;;;-1.88;80.96
49835;BME280;35729;52.090;13.162;2024-03-08T02:27:31;101725.00;;;-1.90;80.94
49835;BME280;35729;52.090;13.162;2024-03-08T02:29:59;101722.34;;;-1.92;81.19
49835;BME280;35729;52.090;13.162;2024-03-08T02:32:27;101715.28;;;-1.96;81.20
49835;BME280;35729;52.090;13.162;2024-03-08T02:34:58;101723.75;;;-1.99;81.33
49835;BME280;35729;52.090;13.162;2024-03-08T02:37:26;101722.81;;;-2.01;81.42
49835;BME280;35729;52.090;13.162;2024-03-08T02:39:58;101722.72;;;-2.02;81.47
49835;BME280;35729;52.090;13.162;2024-03-08T02:42:27;101714.88;;;-2.05;81.57
49835;BME280;35729;52.090;13.162;2024-03-08T02:44:55;101708.72;;;-2.09;81.78
49835;BME280;35729;52.090;13.162;2024-03-08T02:47:23;101712.94;;;-2.11;81.84
49835;BME280;35729;52.090;13.162;2024-03-08T02:49:52;101714.53;;;-2.13;82.10
49835;BME280;35729;52.090;13.162;2024-03-08T02:52:20;101711.81;;;-2.16;82.07
49835;BME280;35729;52.090;13.162;2024-03-08T02:54:48;101716.81;;;-2.19;82.08
49835;BME280;35729;52.090;13.162;2024-03-08T02:57:20;101715.81;;;-2.23;82.41
49835;BME280;35729;52.090;13.162;2024-03-08T02:59:48;101714.88;;;-2.25;82.35
49835;BME280;35729;52.090;13.162;2024-03-08T03:02:17;101715.66;;;-2.26;82.37
49835;BME280;35729;52.090;13.162;2024-03-08T03:04:45;101713.84;;;-2.28;82.18
49835;BME280;35729;52.090;13.162;2024-03-08T03:07:13;101721.47;;;-2.30;82.38
49835;BME280;35729;52.090;13.162;2024-03-08T03:09:42;101710.03;;;-2.37;82.53
49835;BME280;35729;52.090;13.162;2024-03-08T03:12:10;101709.09;;;-2.39;82.60
49835;BME280;35729;52.090;13.162;2024-03-08T03:14:42;101709.78;;;-2.41;82.71
49835;BME280;35729;52.090;13.162;2024-03-08T03:17:10;101710.63;;;-2.42;82.81
49835;BME280;35729;52.090;13.162;2024-03-08T03:19:40;101707.97;;;-2.44;82.89
49835;BME280;35729;52.090;13.162;2024-03-08T03:22:09;101700.19;;;-2.46;82.80
49835;BME280;35729;52.090;13.162;2024-03-08T03:24:37;101707.03;;;-2.46;83.18
49835;BME280;35729;52.090;13.162;2024-03-08T03:27:07;101705.25;;;-2.47;82.98
49835;BME280;35729;52.090;13.162;2024-03-08T03:29:39;101697.31;;;-2.52;83.10
49835;BME280;35729;52.090;13.162;2024-03-08T03:32:13;101696.41;;;-2.54;83.31
49835;BME280;35729;52.090;13.162;2024-03-08T03:34:44;101706.50;;;-2.57;83.39
49835;BME280;35729;52.090;13.162;2024-03-08T03:37:12;101703.00;;;-2.59;83.67
49835;BME280;35729;52.090;13.162;2024-03-08T03:39:49;101699.25;;;-2.66;83.54
49835;BME280;35729;52.090;13.162;2024-03-08T03:42:19;101700.94;;;-2.66;83.61
49835;BME280;35729;52.090;13.162;2024-03-08T03:44:48;101697.41;;;-2.68;83.99
49835;BME280;35729;52.090;13.162;2024-03-08T03:47:19;101699.84;;;-2.71;84.09
49835;BME280;35729;52.090;13.162;2024-03-08T03:49:47;101700.59;;;-2.74;84.13
49835;BME280;35729;52.090;13.162;2024-03-08T03:52:16;101703.72;;;-2.80;84.10
49835;BME280;35729;52.090;13.162;2024-03-08T03:54:44;101693.44;;;-2.80;84.46
49835;BME280;35729;52.090;13.162;2024-03-08T03:57:12;101691.63;;;-2.82;84.45
49835;BME280;35729;52.090;13.162;2024-03-08T03:59:40;101697.47;;;-2.85;84.20
49835;BME280;35729;52.090;13.162;2024-03-08T04:02:09;101693.16;;;-2.86;84.45
49835;BME280;35729;52.090;13.162;2024-03-08T04:04:40;101696.44;;;-2.88;84.67
49835;BME280;35729;52.090;13.162;2024-03-08T04:07:09;101698.94;;;-2.90;84.65
49835;BME280;35729;52.090;13.162;2024-03-08T04:09:37;101701.38;;;-2.93;84.82
49835;BME280;35729;52.090;13.162;2024-03-08T04:12:06;101696.06;;;-2.96;84.98
49835;BME280;35729;52.090;13.162;2024-03-08T04:14:35;101695.94;;;-2.99;84.98
49835;BME280;35729;52.090;13.162;2024-03-08T04:17:04;101688.06;;;-3.02;85.24
49835;BME280;35729;52.090;13.162;2024-03-08T04:19:34;101693.06;;;-3.05;85.55
49835;BME280;35729;52.090;13.162;2024-03-08T04:22:05;101687.88;;;-3.07;85.47
49835;BME280;35729;52.090;13.162;2024-03-08T04:24:33;101684.34;;;-3.09;85.26
49835;BME280;35729;52.090;13.162;2024-03-08T04:27:02;101689.41;;;-3.11;85.81
49835;BME280;35729;52.090;13.162;2024-03-08T04:29:30;101692.84;;;-3.10;85.53
49835;BME280;35729;52.090;13.162;2024-03-08T04:32:00;101691.91;;;-3.12;85.52
49835;BME280;35729;52.090;13.162;2024-03-08T04:34:29;101687.63;;;-3.12;85.60
49835;BME280;35729;52.090;13.162;2024-03-08T04:36:57;101693.56;;;-3.13;85.85
49835;BME280;35729;52.090;13.162;2024-03-08T04:39:28;101694.38;;;-3.14;85.88
49835;BME280;35729;52.090;13.162;2024-03-08T04:41:58;101696.06;;;-3.14;86.08
49835;BME280;35729;52.090;13.162;2024-03-08T04:44:28;101695.16;;;-3.15;86.03
49835;BME280;35729;52.090;13.162;2024-03-08T04:46:57;101691.66;;;-3.17;86.12
49835;BME280;35729;52.090;13.162;2024-03-08T04:49:25;101696.72;;;-3.18;86.11
49835;BME280;35729;52.090;13.162;2024-03-08T04:51:54;101692.41;;;-3.19;86.45
49835;BME280;35729;52.090;13.162;2024-03-08T04:54:22;101697.47;;;-3.21;86.82
49835;BME280;35729;52.090;13.162;2024-03-08T04:56:53;101693.06;;;-3.23;86.68
49835;BME280;35729;52.090;13.162;2024-03-08T04:59:21;101693.91;;;-3.23;86.71
49835;BME280;35729;52.090;13.162;2024-03-08T05:01:49;101694.72;;;-3.24;86.78
49835;BME280;35729;52.090;13.162;2024-03-08T05:04:18;101695.53;;;-3.25;86.82
49835;BME280;35729;52.090;13.162;2024-03-08T05:06:46;101696.34;;;-3.26;86.78
49835;BME280;35729;52.090;13.162;2024-03-08T05:09:14;101679.97;;;-3.28;87.01
49835;BME280;35729;52.090;13.162;2024-03-08T05:11:44;101694.59;;;-3.27;87.12
49835;BME280;35729;52.090;13.162;2024-03-08T05:14:16;101688.66;;;-3.26;87.69
49835;BME280;35729;52.090;13.162;2024-03-08T05:16:46;101682.56;;;-3.28;87.54
49835;BME280;35729;52.090;13.162;2024-03-08T05:19:15;101679.97;;;-3.28;87.73
49835;BME280;35729;52.090;13.162;2024-03-08T05:21:44;101685.97;;;-3.28;87.91
49835;BME280;35729;52.090;13.162;2024-03-08T05:24:13;101673.94;;;-3.29;88.03
49835;BME280;35729;52.090;13.162;2024-03-08T05:26:41;101675.72;;;-3.28;87.86
49835;BME280;35729;52.090;13.162;2024-03-08T05:29:10;101670.59;;;-3.28;88.55
49835;BME280;35729;52.090;13.162;2024-03-08T05:31:47;101679.09;;;-3.29;88.69
49835;BME280;35729;52.090;13.162;2024-03-08T05:34:16;101679.09;;;-3.29;88.90
49835;BME280;35729;52.090;13.162;2024-03-08T05:36:45;101678.22;;;-3.29;88.68
49835;BME280;35729;52.090;13.162;2024-03-08T05:39:15;101668.75;;;-3.30;88.80
49835;BME280;35729;52.090;13.162;2024-03-08T05:41:44;101673.88;;;-3.30;89.01
49835;BME280;35729;52.090;13.162;2024-03-08T05:44:13;101670.44;;;-3.31;88.82
49835;BME280;35729;52.090;13.162;2024-03-08T05:46:45;101670.50;;;-3.29;89.02
49835;BME280;35729;52.090;13.162;2024-03-08T05:49:13;101673.94;;;-3.29;88.88
49835;BME280;35729;52.090;13.162;2024-03-08T05:51:41;101671.38;;;-3.29;88.75
49835;BME280;35729;52.090;13.162;2024-03-08T05:54:11;101666.34;;;-3.27;88.81
49835;BME280;35729;52.090;13.162;2024-03-08T05:56:40;101668.97;;;-3.25;88.81
49835;BME280;35729;52.090;13.162;2024-03-08T05:59:09;101667.28;;;-3.25;88.99
49835;BME280;35729;52.090;13.162;2024-03-08T06:01:38;101669.94;;;-3.23;88.96
49835;BME280;35729;52.090;13.162;2024-03-08T06:04:09;101665.69;;;-3.23;89.10
49835;BME280;35729;52.090;13.162;2024-03-08T06:06:39;101666.66;;;-3.21;89.00
49835;BME280;35729;52.090;13.162;2024-03-08T06:09:08;101678.66;;;-3.20;89.03
49835;BME280;35729;52.090;13.162;2024-03-08T06:11:41;101675.28;;;-3.19;88.99
49835;BME280;35729;52.090;13.162;2024-03-08T06:14:10;101674.50;;;-3.18;89.34
49835;BME280;35729;52.090;13.162;2024-03-08T06:16:38;101671.13;;;-3.17;89.51
49835;BME280;35729;52.090;13.162;2024-03-08T06:19:09;101667.81;;;-3.14;89.32
49835;BME280;35729;52.090;13.162;2024-03-08T06:21:37;101671.38;;;-3.12;89.57
49835;BME280;35729;52.090;13.162;2024-03-08T06:24:06;101663.72;;;-3.11;89.28
49835;BME280;35729;52.090;13.162;2024-03-08T06:26:35;101667.22;;;-3.08;89.66
49835;BME280;35729;52.090;13.162;2024-03-08T06:29:03;101663.94;;;-3.06;89.94
49835;BME280;35729;52.090;13.162;2024-03-08T06:31:33;101666.59;;;-3.04;89.83
49835;BME280;35729;52.090;13.162;2024-03-08T06:34:04;101663.38;;;-3.00;89.88
49835;BME280;35729;52.090;13.162;2024-03-08T06:36:35;101665.19;;;-2.98;89.77
49835;BME280;35729;52.090;13.162;2024-03-08T06:39:04;101667.91;;;-2.95;90.05
49835;BME280;35729;52.090;13.162;2024-03-08T06:41:35;101664.59;;;-2.92;90.01
49835;BME280;35729;52.090;13.162;2024-03-08T06:44:03;101663.00;;;-2.90;89.92
49835;BME280;35729;52.090;13.162;2024-03-08T06:46:33;101656.25;;;-2.88;90.60
49835;BME280;35729;52.090;13.162;2024-03-08T06:49:08;101666.81;;;-2.82;90.35
49835;BME280;35729;52.090;13.162;2024-03-08T06:51:39;101663.53;;;-2.79;90.17
49835;BME280;35729;52.090;13.162;2024-03-08T06:54:08;101656.75;;;-2.77;90.47
49835;BME280;35729;52.090;13.162;2024-03-08T06:56:36;101656.97;;;-2.72;90.30
49835;BME280;35729;52.090;13.162;2024-03-08T06:59:05;101649.41;;;-2.69;90.98
49835;BME280;35729;52.090;13.162;2024-03-08T07:01:35;101651.31;;;-2.65;90.78
49835;BME280;35729;52.090;13.162;2024-03-08T07:04:04;101644.72;;;-2.60;90.73
49835;BME280;35729;52.090;13.162;2024-03-08T07:06:33;101641.47;;;-2.56;90.84
49835;BME280;35729;52.090;13.162;2024-03-08T07:09:04;101646.91;;;-2.50;91.05
49835;BME280;35729;52.090;13.162;2024-03-08T07:11:33;101644.59;;;-2.43;90.90
49835;BME280;35729;52.090;13.162;2024-03-08T07:14:02;101640.56;;;-2.38;91.00
49835;BME280;35729;52.090;13.162;2024-03-08T07:16:31;101642.59;;;-2.31;91.50
49835;BME280;35729;52.090;13.162;2024-03-08T07:19:00;101651.59;;;-2.21;91.25
49835;BME280;35729;52.090;13.162;2024-03-08T07:21:30;101650.25;;;-2.13;91.37
49835;BME280;35729;52.090;13.162;2024-03-08T07:23:58;101648.16;;;-2.02;91.39
49835;BME280;35729;52.090;13.162;2024-03-08T07:26:46;101648.69;;;-1.90;91.83
49835;BME280;35729;52.090;13.162;2024-03-08T07:29:17;101638.81;;;-1.81;92.06
49835;BME280;35729;52.090;13.162;2024-03-08T07:31:52;101635.81;;;-1.70;92.12
49835;BME280;35729;52.090;13.162;2024-03-08T07:34:36;101640.66;;;-1.57;92.15
49835;BME280;35729;52.090;13.162;2024-03-08T07:37:06;101642.00;;;-1.45;92.27
49835;BME280;35729;52.090;13.162;2024-03-08T07:39:37;101638.16;;;-1.34;92.02
49835;BME280;35729;52.090;13.162;2024-03-08T07:42:09;101632.59;;;-1.24;91.71
49835;BME280;35729;52.090;13.162;2024-03-08T07:44:44;101634.72;;;-1.13;91.79
49835;BME280;35729;52.090;13.162;2024-03-08T07:47:20;101627.41;;;-1.03;91.82
49835;BME280;35729;52.090;13.162;2024-03-08T07:49:48;101633.00;;;-0.92;91.43
49835;BME280;35729;52.090;13.162;2024-03-08T07:52:17;101618.81;;;-0.82;91.39
49835;BME280;35729;52.090;13.162;2024-03-08T07:54:45;101617.44;;;-0.72;91.31
49835;BME280;35729;52.090;13.162;2024-03-08T07:57:17;101620.50;;;-0.60;91.24
49835;BME280;35729;52.090;13.162;2024-03-08T07:59:45;101618.25;;;-0.51;90.92
49835;BME280;35729;52.090;13.162;2024-03-08T08:02:14;101622.09;;;-0.39;90.62
49835;BME280;35729;52.090;13.162;2024-03-08T08:04:43;101624.22;;;-0.29;90.61
49835;BME280;35729;52.090;13.162;2024-03-08T08:07:11;101627.97;;;-0.21;90.25
49835;BME280;35729;52.090;13.162;2024-03-08T08:09:40;101621.44;;;-0.11;89.94
49835;BME280;35729;52.090;13.162;2024-03-08T08:12:08;101620.06;;;-0.01;89.67
49835;BME280;35729;52.090;13.162;2024-03-08T08:14:41;101610.03;;;0.07;89.48
49835;BME280;35729;52.090;13.162;2024-03-08T08:17:09;101615.50;;;0.16;89.63
49835;BME280;35729;52.090;13.162;2024-03-08T08:19:38;101609.81;;;0.26;89.54
49835;BME280;35729;52.090;13.162;2024-03-08T08:22:06;101610.25;;;0.39;89.07
49835;BME280;35729;52.090;13.162;2024-03-08T08:24:35;101596.00;;;0.50;89.11
49835;BME280;35729;52.090;13.162;2024-03-08T08:27:04;101588.66;;;0.62;88.54
49835;BME280;35729;52.090;13.162;2024-03-08T08:29:33;101584.69;;;0.72;88.42
49835;BME280;35729;52.090;13.162;2024-03-08T08:32:05;101585.91;;;0.84;87.95
49835;BME280;35729;52.090;13.162;2024-03-08T08:34:33;101584.53;;;0.95;87.50
49835;BME280;35729;52.090;13.162;2024-03-08T08:37:01;101583.97;;;1.05;87.39
49835;BME280;35729;52.090;13.162;2024-03-08T08:39:30;101580.03;;;1.17;87.12
49835;BME280;35729;52.090;13.162;2024-03-08T08:41:58;101583.69;;;1.25;86.51
49835;BME280;35729;52.090;13.162;2024-03-08T08:44:28;101584.00;;;1.34;86.47
49835;BME280;35729;52.090;13.162;2024-03-08T08:46:56;101583.25;;;1.38;85.88
49835;BME280;35729;52.090;13.162;2024-03-08T08:49:27;101586.13;;;1.49;85.73
49835;BME280;35729;52.090;13.162;2024-03-08T08:51:56;101572.53;;;1.56;85.45
49835;BME280;35729;52.090;13.162;2024-03-08T08:54:24;101575.44;;;1.67;85.43
49835;BME280;35729;52.090;13.162;2024-03-08T08:56:53;101574.75;;;1.74;84.58
49835;BME280;35729;52.090;13.162;2024-03-08T08:59:21;101578.50;;;1.84;84.13
49835;BME280;35729;52.090;13.162;2024-03-08T09:01:50;101575.28;;;1.93;83.38
49835;BME280;35729;52.090;13.162;2024-03-08T09:04:19;101567.78;;;2.02;83.03
49835;BME280;35729;52.090;13.162;2024-03-08T09:06:50;101564.53;;;2.11;82.16
49835;BME280;35729;52.090;13.162;2024-03-08T09:09:19;101559.56;;;2.19;82.12
49835;BME280;35729;52.090;13.162;2024-03-08T09:12:09;101555.50;;;2.28;81.06
49835;BME280;35729;52.090;13.162;2024-03-08T09:14:38;101558.25;;;2.35;80.72
49835;BME280;35729;52.090;13.162;2024-03-08T09:17:13;101565.38;;;2.43;80.41
49835;BME280;35729;52.090;13.162;2024-03-08T09:19:46;101542.97;;;2.46;79.57
49835;BME280;35729;52.090;13.162;2024-03-08T09:22:17;101548.47;;;2.58;78.96
49835;BME280;35729;52.090;13.162;2024-03-08T09:24:45;101546.88;;;2.65;79.39
49835;BME280;35729;52.090;13.162;2024-03-08T09:27:13;101555.69;;;2.73;79.13
49835;BME280;35729;52.090;13.162;2024-03-08T09:29:41;101549.81;;;2.80;77.47
49835;BME280;35729;52.090;13.162;2024-03-08T09:32:10;101546.56;;;2.89;77.69
49835;BME280;35729;52.090;13.162;2024-03-08T09:34:39;101545.91;;;2.98;77.14
49835;BME280;35729;52.090;13.162;2024-03-08T09:37:07;101532.22;;;3.03;76.90
49835;BME280;35729;52.090;13.162;2024-03-08T09:39:38;101539.28;;;3.12;77.07
49835;BME280;35729;52.090;13.162;2024-03-08T09:42:06;101536.91;;;3.21;76.36
49835;BME280;35729;52.090;13.162;2024-03-08T09:44:36;101533.53;;;3.25;76.36
49835;BME280;35729;52.090;13.162;2024-03-08T09:47:05;101528.47;;;3.30;76.01
49835;BME280;35729;52.090;13.162;2024-03-08T09:49:34;101523.41;;;3.36;75.20
49835;BME280;35729;52.090;13.162;2024-03-08T09:52:03;101520.94;;;3.42;74.89
49835;BME280;35729;52.090;13.162;2024-03-08T09:54:32;101515.84;;;3.49;74.25
49835;BME280;35729;52.090;13.162;2024-03-08T09:57:03;101513.44;;;3.56;72.83
49835;BME280;35729;52.090;13.162;2024-03-08T09:59:33;101523.09;;;3.65;72.86
49835;BME280;35729;52.090;13.162;2024-03-08T10:02:16;101518.91;;;3.72;71.58
49835;BME280;35729;52.090;13.162;2024-03-08T10:04:46;101505.22;;;3.81;72.08
49835;BME280;35729;52.090;13.162;2024-03-08T10:07:14;101511.41;;;3.89;70.52
49835;BME280;35729;52.090;13.162;2024-03-08T10:09:43;101506.34;;;3.95;69.57
49835;BME280;35729;52.090;13.162;2024-03-08T10:12:18;101506.47;;;4.03;68.90
49835;BME280;35729;52.090;13.162;2024-03-08T10:14:54;101494.47;;;4.10;66.54
49835;BME280;35729;52.090;13.162;2024-03-08T10:17:23;101486.81;;;4.17;64.88
49835;BME280;35729;52.090;13.162;2024-03-08T10:19:52;101486.91;;;4.23;66.23
49835;BME280;35729;52.090;13.162;2024-03-08T10:22:20;101492.25;;;4.31;65.91
49835;BME280;35729;52.090;13.162;2024-03-08T10:24:49;101482.81;;;4.39;65.81
49835;BME280;35729;52.090;13.162;2024-03-08T10:27:20;101487.31;;;4.50;64.70
49835;BME280;35729;52.090;13.162;2024-03-08T10:29:48;101481.34;;;4.55;65.01
49835;BME280;35729;52.090;13.162;2024-03-08T10:32:18;101484.06;;;4.63;64.08
49835;BME280;35729;52.090;13.162;2024-03-08T10:34:46;101485.91;;;4.70;64.22
49835;BME280;35729;52.090;13.162;2024-03-08T10:37:15;101482.47;;;4.75;64.11
49835;BME280;35729;52.090;13.162;2024-03-08T10:39:58;101481.75;;;4.83;61.28
49835;BME280;35729;52.090;13.162;2024-03-08T10:42:40;101481.81;;;4.89;62.20
49835;BME280;35729;52.090;13.162;2024-03-08T10:45:15;101478.47;;;4.97;62.20
49835;BME280;35729;52.090;13.162;2024-03-08T10:47:49;101476.78;;;5.02;63.31
49835;BME280;35729;52.090;13.162;2024-03-08T10:50:25;101467.34;;;5.09;63.23
49835;BME280;35729;52.090;13.162;2024-03-08T10:52:55;101470.88;;;5.15;62.56
49835;BME280;35729;52.090;13.162;2024-03-08T10:55:28;101467.50;;;5.21;62.25
49835;BME280;35729;52.090;13.162;2024-03-08T10:58:00;101465.84;;;5.29;62.01
49835;BME280;35729;52.090;13.162;2024-03-08T11:00:29;101452.91;;;5.35;62.04
49835;BME280;35729;52.090;13.162;2024-03-08T11:02:57;101454.72;;;5.43;61.85
49835;BME280;35729;52.090;13.162;2024-03-08T11:05:32;101454.78;;;5.47;60.42
49835;BME280;35729;52.090;13.162;2024-03-08T11:08:08;101451.34;;;5.53;57.53
49835;BME280;35729;52.090;13.162;2024-03-08T11:10:47;101449.72;;;5.61;60.03
49835;BME280;35729;52.090;13.162;2024-03-08T11:13:35;101448.00;;;5.65;55.58
49835;BME280;35729;52.090;13.162;2024-03-08T11:16:07;101438.53;;;5.70;59.22
49835;BME280;35729;52.090;13.162;2024-03-08T11:18:36;101434.22;;;5.75;58.68
49835;BME280;35729;52.090;13.162;2024-03-08T11:21:08;101436.00;;;5.81;57.05
49835;BME280;35729;52.090;13.162;2024-03-08T11:23:37;101422.19;;;5.88;58.96
49835;BME280;35729;52.090;13.162;2024-03-08T11:26:17;101425.69;;;5.92;56.58
49835;BME280;35729;52.090;13.162;2024-03-08T11:28:49;101419.66;;;5.97;57.72
49835;BME280;35729;52.090;13.162;2024-03-08T11:31:25;101409.31;;;6.03;57.43
49835;BME280;35729;52.090;13.162;2024-03-08T11:33:54;101402.41;;;6.07;58.05
49835;BME280;35729;52.090;13.162;2024-03-08T11:36:23;101405.03;;;6.12;57.02
49835;BME280;35729;52.090;13.162;2024-03-08T11:38:52;101396.38;;;6.17;57.72
49835;BME280;35729;52.090;13.162;2024-03-08T11:41:22;101400.78;;;6.25;56.96
49835;BME280;35729;52.090;13.162;2024-03-08T11:44:04;101392.13;;;6.30;53.11
49835;BME280;35729;52.090;13.162;2024-03-08T11:46:35;101386.09;;;6.36;55.76
49835;BME280;35729;52.090;13.162;2024-03-08T11:49:07;101390.44;;;6.42;56.09
49835;BME280;35729;52.090;13.162;2024-03-08T11:51:37;101375.72;;;6.47;55.65
49835;BME280;35729;52.090;13.162;2024-03-08T11:54:06;101379.22;;;6.52;55.29
49835;BME280;35729;52.090;13.162;2024-03-08T11:56:34;101369.66;;;6.56;54.97
49835;BME280;35729;52.090;13.162;2024-03-08T11:59:13;101369.69;;;6.62;54.93
49835;BME280;35729;52.090;13.162;2024-03-08T12:01:43;101364.53;;;6.68;54.68
49835;BME280;35729;52.090;13.162;2024-03-08T12:04:12;101361.03;;;6.72;51.94
49835;BME280;35729;52.090;13.162;2024-03-08T12:06:41;101361.97;;;6.79;53.35
49835;BME280;35729;52.090;13.162;2024-03-08T12:09:13;101356.78;;;6.87;53.62
49835;BME280;35729;52.090;13.162;2024-03-08T12:11:42;101348.13;;;6.94;52.71
49835;BME280;35729;52.090;13.162;2024-03-08T12:14:14;101344.63;;;7.01;52.27
49835;BME280;35729;52.090;13.162;2024-03-08T12:16:43;101337.72;;;7.08;52.03
49835;BME280;35729;52.090;13.162;2024-03-08T12:19:14;101326.38;;;7.16;52.13
49835;BME280;35729;52.090;13.162;2024-03-08T12:21:42;101329.91;;;7.25;52.06
49835;BME280;35729;52.090;13.162;2024-03-08T12:24:15;101330.78;;;7.34;50.84
49835;BME280;35729;52.090;13.162;2024-03-08T12:26:45;101320.34;;;7.42;49.58
49835;BME280;35729;52.090;13.162;2024-03-08T12:29:21;101323.84;;;7.52;49.15
49835;BME280;35729;52.090;13.162;2024-03-08T12:31:54;101328.19;;;7.64;48.36
49835;BME280;35729;52.090;13.162;2024-03-08T12:34:24;101316.84;;;7.76;49.40
49835;BME280;35729;52.090;13.162;2024-03-08T12:36:52;101315.97;;;7.89;49.42
49835;BME280;35729;52.090;13.162;2024-03-08T12:39:22;101307.22;;;8.07;49.49
49835;BME280;35729;52.090;13.162;2024-03-08T12:41:52;101296.72;;;8.27;48.31
49835;BME280;35729;52.090;13.162;2024-03-08T12:44:25;101293.16;;;8.50;48.01
49835;BME280;35729;52.090;13.162;2024-03-08T12:46:54;101292.19;;;8.76;47.71
49835;BME280;35729;52.090;13.162;2024-03-08T12:49:24;101283.31;;;9.00;47.04
49835;BME280;35729;52.090;13.162;2024-03-08T12:51:52;101281.41;;;9.25;46.42
49835;BME280;35729;52.090;13.162;2024-03-08T12:54:21;101276.84;;;9.46;45.81
49835;BME280;35729;52.090;13.162;2024-03-08T12:56:51;101267.91;;;9.70;45.55